Detalii statie AGRONOVA [00001CEC]

Toti senzorii

Date Temperatura solului [C]Precipitatii [mm]Voltaj baterie [mV]Leaf Wetness [Min]HC Air temperature [C]HC Relative humidity [%]Punctul de roua [C]
medieminmaxsumaultimatimpmedieminmaxmediemediemin
2017-10-20 09:00:00 11.7 11.6 11.9 0 7196 9.8 7.72 11.62 0 0 0
2017-10-20 10:00:00 12 11.7 12.3 0 7264 12.58 11.67 14.28 0 0 0
2017-10-20 11:00:00 12.6 12.3 13 0 7254 17.25 15.01 19.31 0 0 0
2017-10-20 12:00:00 13.4 13.1 13.8 0 7254 20.85 19.62 22.01 0 0 0
2017-10-20 13:00:00 14 13.8 14.4 0 7254 23.16 22.22 23.82 0 0 0
2017-10-20 14:00:00 14.6 14.4 14.9 0 7246 24.49 23.88 25.18 0 0 0
2017-10-20 15:00:00 14.8 14.7 15 0 7246 25.59 25.21 25.88 0 0 0
2017-10-20 16:00:00 15 14.9 15.2 0 7246 25.72 25.3 25.92 0 0 0
2017-10-20 17:00:00 15 14.9 15.2 0 7236 23.7 21.41 25.26 0 0 0
2017-10-20 18:00:00 14.9 14.7 15 0 6894 18.55 16.42 21.27 0 0 0
2017-10-20 19:00:00 14.5 14.3 14.7 0 6776 15.38 14.73 15.95 0 0 0
2017-10-20 20:00:00 14.1 14 14.4 0 6688 13.97 12.91 14.64 0 0 0
2017-10-20 21:00:00 13.8 13.7 14.1 0 6660 12.21 11.59 12.9 0 0 0
2017-10-20 22:00:00 13.6 13.5 13.8 0 6650 10.95 9.2 11.72 0 0 0
2017-10-20 23:00:00 13.3 13.1 13.5 0 6640 10.32 9.72 10.86 0 0 0
2017-10-21 00:00:00 13 13 13.2 0 6630 8.57 7.3 10.4 0 0 0
2017-10-21 01:00:00 12.7 12.6 12.9 0 6630 7.54 6.92 8.79 0 0 0
2017-10-21 02:00:00 12.5 12.4 12.7 0 6630 7.8 6.53 8.66 0 0 0
2017-10-21 03:00:00 12.3 12.3 12.5 0 6610 7.12 5.7 8.03 0 0 0
2017-10-21 04:00:00 12.1 12.1 12.3 0 6610 5.08 4.81 5.74 0 0 0
2017-10-21 05:00:00 11.9 11.8 12.1 0 6600 5.86 5.54 6.13 0 0 0
2017-10-21 06:00:00 11.7 11.7 11.9 0 6582 4.81 4.23 5.92 0 0 0
2017-10-21 07:00:00 11.6 11.4 11.8 0 6582 4.17 3.7 4.56 0 0 0
2017-10-21 08:00:00 11.4 11.3 11.6 0 6806 5.26 3.95 6.85 0 0 0
2017-10-21 09:00:00 11.3 11.2 11.5 0 7206 9.25 7.16 11.52 0 0 0
2017-10-21 10:00:00 11.6 11.4 11.9 0 7264 12.9 11.68 14.1 0 0 0
2017-10-21 11:00:00 12.2 11.9 12.6 0 7254 16.08 14.48 17.66 0 0 0
2017-10-21 12:00:00 12.9 12.6 13.2 0 7254 18.85 17.51 20.11 0 0 0
2017-10-21 13:00:00 13.5 13.3 13.8 0 7254 21.35 20 22.59 0 0 0
2017-10-21 14:00:00 14 13.8 14.2 0 7246 23.17 22.65 23.57 0 0 0
2017-10-21 15:00:00 14.3 14.2 14.5 0 7254 23.86 23.47 24.31 0 0 0
2017-10-21 16:00:00 14.5 14.4 14.6 0 7246 24.17 23.67 24.38 0 0 0
2017-10-21 17:00:00 14.5 14.4 14.7 0 7070 21.33 19.26 23.2 0 0 0
2017-10-21 18:00:00 14.4 14.3 14.6 0 6884 17.54 16.46 19.19 0 0 0
2017-10-21 19:00:00 14.1 14 14.3 0 6756 15.13 13.79 16.19 0 0 0
2017-10-21 20:00:00 13.8 13.7 14.1 0 6678 13.59 12.87 14.34 0 0 0
2017-10-21 21:00:00 13.6 13.5 13.7 0 6660 12.05 11.57 12.59 0 0 0
2017-10-21 22:00:00 13.3 13.2 13.5 0 6650 12.89 12.57 13.7 0 0 0
2017-10-21 23:00:00 13.3 13.2 13.5 0 6650 12.96 12.33 13.65 0 0 0
2017-10-22 00:00:00 13.1 13 13.2 0 6640 12.16 11.43 13.43 0 0 0
2017-10-22 01:00:00 12.9 12.8 13.1 0 6630 11.43 10.87 11.84 0 0 0
2017-10-22 02:00:00 12.7 12.7 12.8 0 6630 9.87 8.76 11.16 0 0 0
2017-10-22 03:00:00 12.4 12.3 12.7 0 6620 8.93 8.09 9.66 0 0 0
2017-10-22 04:00:00 12.3 12.2 12.4 0 6610 9.34 7.9 9.94 0 0 0
2017-10-22 05:00:00 12.1 12 12.3 0 6600 9.58 8.18 11.14 0 0 0
2017-10-22 06:00:00 11.9 11.9 12.1 0 6590 7.79 7.19 8.37 0 0 0
2017-10-22 07:00:00 11.8 11.7 12 0 6590 7.51 7.04 8.64 0 0 0
2017-10-22 08:00:00 11.7 11.6 11.9 0 6766 9.81 8.73 10.54 0 0 0